sensor_id;sensor_type;location;lat;lon;timestamp;P1;durP1;ratioP1;P2;durP2;ratioP2
12776;SDS011;6452;41.572;23.732;2023-03-14T00:00:09;5.70;;;4.30;;
12776;SDS011;6452;41.572;23.732;2023-03-14T00:02:36;10.68;;;5.38;;
12776;SDS011;6452;41.572;23.732;2023-03-14T00:05:02;6.45;;;5.13;;
12776;SDS011;6452;41.572;23.732;2023-03-14T00:07:38;8.23;;;6.30;;
12776;SDS011;6452;41.572;23.732;2023-03-14T00:10:08;7.68;;;6.07;;
12776;SDS011;6452;41.572;23.732;2023-03-14T00:12:34;6.63;;;5.53;;
12776;SDS011;6452;41.572;23.732;2023-03-14T00:15:00;6.35;;;5.68;;
12776;SDS011;6452;41.572;23.732;2023-03-14T00:17:29;8.25;;;6.07;;
12776;SDS011;6452;41.572;23.732;2023-03-14T00:19:55;6.40;;;5.13;;
12776;SDS011;6452;41.572;23.732;2023-03-14T00:22:21;5.20;;;4.70;;
12776;SDS011;6452;41.572;23.732;2023-03-14T00:24:47;5.72;;;5.20;;
12776;SDS011;6452;41.572;23.732;2023-03-14T00:27:13;5.75;;;5.07;;
12776;SDS011;6452;41.572;23.732;2023-03-14T00:29:39;7.15;;;5.72;;
12776;SDS011;6452;41.572;23.732;2023-03-14T00:32:05;6.63;;;4.80;;
12776;SDS011;6452;41.572;23.732;2023-03-14T00:34:32;5.90;;;4.93;;
12776;SDS011;6452;41.572;23.732;2023-03-14T00:36:58;6.32;;;5.05;;
12776;SDS011;6452;41.572;23.732;2023-03-14T00:39:24;5.80;;;5.20;;
12776;SDS011;6452;41.572;23.732;2023-03-14T00:41:50;7.00;;;4.93;;
12776;SDS011;6452;41.572;23.732;2023-03-14T00:44:16;6.35;;;5.10;;
12776;SDS011;6452;41.572;23.732;2023-03-14T00:46:42;6.38;;;5.75;;
12776;SDS011;6452;41.572;23.732;2023-03-14T00:49:08;7.18;;;5.68;;
12776;SDS011;6452;41.572;23.732;2023-03-14T00:51:34;8.90;;;5.82;;
12776;SDS011;6452;41.572;23.732;2023-03-14T00:54:00;8.48;;;5.85;;
12776;SDS011;6452;41.572;23.732;2023-03-14T00:56:26;7.78;;;5.57;;
12776;SDS011;6452;41.572;23.732;2023-03-14T00:58:55;7.70;;;5.82;;
12776;SDS011;6452;41.572;23.732;2023-03-14T01:01:21;11.70;;;6.90;;
12776;SDS011;6452;41.572;23.732;2023-03-14T01:03:47;6.20;;;5.60;;
12776;SDS011;6452;41.572;23.732;2023-03-14T01:06:23;9.23;;;6.70;;
12776;SDS011;6452;41.572;23.732;2023-03-14T01:08:50;8.07;;;6.05;;
12776;SDS011;6452;41.572;23.732;2023-03-14T01:11:17;6.82;;;5.95;;
12776;SDS011;6452;41.572;23.732;2023-03-14T01:13:44;7.00;;;5.72;;
12776;SDS011;6452;41.572;23.732;2023-03-14T01:16:10;6.57;;;5.97;;
12776;SDS011;6452;41.572;23.732;2023-03-14T01:18:37;7.28;;;6.20;;
12776;SDS011;6452;41.572;23.732;2023-03-14T01:21:04;7.15;;;6.10;;
12776;SDS011;6452;41.572;23.732;2023-03-14T01:23:34;10.05;;;7.75;;
12776;SDS011;6452;41.572;23.732;2023-03-14T01:26:00;8.02;;;6.90;;
12776;SDS011;6452;41.572;23.732;2023-03-14T01:28:26;8.05;;;6.45;;
12776;SDS011;6452;41.572;23.732;2023-03-14T01:30:52;7.88;;;6.78;;
12776;SDS011;6452;41.572;23.732;2023-03-14T01:33:19;7.80;;;6.28;;
12776;SDS011;6452;41.572;23.732;2023-03-14T01:35:51;7.07;;;6.25;;
12776;SDS011;6452;41.572;23.732;2023-03-14T01:38:17;6.97;;;5.88;;
12776;SDS011;6452;41.572;23.732;2023-03-14T01:40:45;7.05;;;6.35;;
12776;SDS011;6452;41.572;23.732;2023-03-14T01:43:15;7.60;;;6.25;;
12776;SDS011;6452;41.572;23.732;2023-03-14T01:48:22;6.78;;;6.07;;
12776;SDS011;6452;41.572;23.732;2023-03-14T01:50:48;7.60;;;6.55;;
12776;SDS011;6452;41.572;23.732;2023-03-14T01:53:14;7.82;;;6.53;;
12776;SDS011;6452;41.572;23.732;2023-03-14T01:55:40;8.32;;;6.22;;
12776;SDS011;6452;41.572;23.732;2023-03-14T01:58:06;12.38;;;6.57;;
12776;SDS011;6452;41.572;23.732;2023-03-14T02:00:32;8.18;;;6.68;;
12776;SDS011;6452;41.572;23.732;2023-03-14T02:02:58;7.10;;;6.50;;
12776;SDS011;6452;41.572;23.732;2023-03-14T02:05:26;6.85;;;6.15;;
12776;SDS011;6452;41.572;23.732;2023-03-14T02:07:55;6.95;;;6.25;;
12776;SDS011;6452;41.572;23.732;2023-03-14T02:10:22;7.93;;;6.32;;
12776;SDS011;6452;41.572;23.732;2023-03-14T02:12:48;9.48;;;7.13;;
12776;SDS011;6452;41.572;23.732;2023-03-14T02:15:14;9.02;;;6.80;;
12776;SDS011;6452;41.572;23.732;2023-03-14T02:17:40;8.15;;;6.90;;
12776;SDS011;6452;41.572;23.732;2023-03-14T02:20:20;10.20;;;6.85;;
12776;SDS011;6452;41.572;23.732;2023-03-14T02:22:48;7.97;;;5.50;;
12776;SDS011;6452;41.572;23.732;2023-03-14T02:27:47;7.47;;;5.28;;
12776;SDS011;6452;41.572;23.732;2023-03-14T02:30:14;6.82;;;5.93;;
12776;SDS011;6452;41.572;23.732;2023-03-14T02:32:43;9.23;;;5.90;;
12776;SDS011;6452;41.572;23.732;2023-03-14T02:35:11;5.95;;;5.45;;
12776;SDS011;6452;41.572;23.732;2023-03-14T02:37:46;8.75;;;5.78;;
12776;SDS011;6452;41.572;23.732;2023-03-14T02:40:13;7.95;;;6.47;;
12776;SDS011;6452;41.572;23.732;2023-03-14T02:42:39;6.63;;;5.88;;
12776;SDS011;6452;41.572;23.732;2023-03-14T02:47:34;5.55;;;4.95;;
12776;SDS011;6452;41.572;23.732;2023-03-14T02:50:01;4.90;;;4.40;;
12776;SDS011;6452;41.572;23.732;2023-03-14T02:52:28;4.40;;;4.03;;
12776;SDS011;6452;41.572;23.732;2023-03-14T02:54:54;5.78;;;4.43;;
12776;SDS011;6452;41.572;23.732;2023-03-14T02:57:20;4.93;;;4.53;;
12776;SDS011;6452;41.572;23.732;2023-03-14T02:59:46;4.95;;;4.20;;
12776;SDS011;6452;41.572;23.732;2023-03-14T03:02:12;8.18;;;4.68;;
12776;SDS011;6452;41.572;23.732;2023-03-14T03:04:38;4.75;;;4.35;;
12776;SDS011;6452;41.572;23.732;2023-03-14T03:07:04;5.65;;;4.85;;
12776;SDS011;6452;41.572;23.732;2023-03-14T03:09:30;5.70;;;4.43;;
12776;SDS011;6452;41.572;23.732;2023-03-14T03:11:56;7.55;;;5.40;;
12776;SDS011;6452;41.572;23.732;2023-03-14T03:14:22;6.20;;;5.03;;
12776;SDS011;6452;41.572;23.732;2023-03-14T03:16:48;5.68;;;5.13;;
12776;SDS011;6452;41.572;23.732;2023-03-14T03:19:15;6.38;;;5.40;;
12776;SDS011;6452;41.572;23.732;2023-03-14T03:21:43;7.47;;;5.30;;
12776;SDS011;6452;41.572;23.732;2023-03-14T03:24:09;7.60;;;6.63;;
12776;SDS011;6452;41.572;23.732;2023-03-14T03:26:35;7.70;;;6.35;;
12776;SDS011;6452;41.572;23.732;2023-03-14T03:29:01;9.02;;;6.30;;
12776;SDS011;6452;41.572;23.732;2023-03-14T03:31:27;9.48;;;7.53;;
12776;SDS011;6452;41.572;23.732;2023-03-14T03:33:53;9.05;;;6.68;;
12776;SDS011;6452;41.572;23.732;2023-03-14T03:36:23;10.52;;;7.95;;
12776;SDS011;6452;41.572;23.732;2023-03-14T03:38:49;11.18;;;7.70;;
12776;SDS011;6452;41.572;23.732;2023-03-14T03:41:15;7.53;;;6.72;;
12776;SDS011;6452;41.572;23.732;2023-03-14T03:43:41;8.68;;;7.15;;
12776;SDS011;6452;41.572;23.732;2023-03-14T03:46:07;6.65;;;6.05;;
12776;SDS011;6452;41.572;23.732;2023-03-14T03:48:34;9.02;;;6.32;;
12776;SDS011;6452;41.572;23.732;2023-03-14T03:51:00;8.73;;;6.70;;
12776;SDS011;6452;41.572;23.732;2023-03-14T03:53:25;7.50;;;6.70;;
12776;SDS011;6452;41.572;23.732;2023-03-14T03:55:51;14.73;;;7.03;;
12776;SDS011;6452;41.572;23.732;2023-03-14T03:58:17;11.85;;;9.02;;
12776;SDS011;6452;41.572;23.732;2023-03-14T04:00:43;9.90;;;8.05;;
12776;SDS011;6452;41.572;23.732;2023-03-14T04:03:09;10.65;;;9.18;;
12776;SDS011;6452;41.572;23.732;2023-03-14T04:05:35;12.90;;;8.52;;
12776;SDS011;6452;41.572;23.732;2023-03-14T04:08:01;8.98;;;6.68;;
12776;SDS011;6452;41.572;23.732;2023-03-14T04:10:28;9.57;;;5.90;;
12776;SDS011;6452;41.572;23.732;2023-03-14T04:12:54;12.02;;;6.70;;
12776;SDS011;6452;41.572;23.732;2023-03-14T04:15:20;12.43;;;7.50;;
12776;SDS011;6452;41.572;23.732;2023-03-14T04:17:46;11.07;;;8.43;;
12776;SDS011;6452;41.572;23.732;2023-03-14T04:20:12;9.27;;;8.13;;
12776;SDS011;6452;41.572;23.732;2023-03-14T04:22:39;11.02;;;8.70;;
12776;SDS011;6452;41.572;23.732;2023-03-14T04:25:05;11.00;;;8.20;;
12776;SDS011;6452;41.572;23.732;2023-03-14T04:27:31;13.70;;;8.68;;
12776;SDS011;6452;41.572;23.732;2023-03-14T04:29:57;10.93;;;8.13;;
12776;SDS011;6452;41.572;23.732;2023-03-14T04:32:23;9.88;;;8.35;;
12776;SDS011;6452;41.572;23.732;2023-03-14T04:34:49;11.10;;;8.48;;
12776;SDS011;6452;41.572;23.732;2023-03-14T04:37:15;9.75;;;8.55;;
12776;SDS011;6452;41.572;23.732;2023-03-14T04:39:41;10.75;;;8.27;;
12776;SDS011;6452;41.572;23.732;2023-03-14T04:42:07;13.02;;;7.57;;
12776;SDS011;6452;41.572;23.732;2023-03-14T04:44:33;8.80;;;6.80;;
12776;SDS011;6452;41.572;23.732;2023-03-14T04:46:59;10.05;;;7.45;;
12776;SDS011;6452;41.572;23.732;2023-03-14T04:49:25;6.78;;;6.15;;
12776;SDS011;6452;41.572;23.732;2023-03-14T04:51:51;8.52;;;6.50;;
12776;SDS011;6452;41.572;23.732;2023-03-14T04:54:18;7.30;;;6.05;;
12776;SDS011;6452;41.572;23.732;2023-03-14T04:56:44;9.00;;;6.32;;
12776;SDS011;6452;41.572;23.732;2023-03-14T04:59:10;9.35;;;6.20;;
12776;SDS011;6452;41.572;23.732;2023-03-14T05:01:36;8.63;;;6.47;;
12776;SDS011;6452;41.572;23.732;2023-03-14T05:04:02;6.82;;;6.10;;
12776;SDS011;6452;41.572;23.732;2023-03-14T05:06:28;8.20;;;6.25;;
12776;SDS011;6452;41.572;23.732;2023-03-14T05:08:54;12.02;;;7.03;;
12776;SDS011;6452;41.572;23.732;2023-03-14T05:11:20;8.95;;;6.60;;
12776;SDS011;6452;41.572;23.732;2023-03-14T05:13:46;7.38;;;6.57;;
12776;SDS011;6452;41.572;23.732;2023-03-14T05:16:12;8.35;;;6.68;;
12776;SDS011;6452;41.572;23.732;2023-03-14T05:18:38;12.52;;;10.70;;
12776;SDS011;6452;41.572;23.732;2023-03-14T05:21:05;24.05;;;17.25;;
12776;SDS011;6452;41.572;23.732;2023-03-14T05:23:31;38.38;;;27.75;;
12776;SDS011;6452;41.572;23.732;2023-03-14T05:25:58;28.30;;;19.33;;
12776;SDS011;6452;41.572;23.732;2023-03-14T05:28:24;24.42;;;17.02;;
12776;SDS011;6452;41.572;23.732;2023-03-14T05:30:50;22.35;;;15.05;;
12776;SDS011;6452;41.572;23.732;2023-03-14T05:33:16;25.92;;;16.45;;
12776;SDS011;6452;41.572;23.732;2023-03-14T05:35:42;24.27;;;18.50;;
12776;SDS011;6452;41.572;23.732;2023-03-14T05:38:08;26.88;;;17.02;;
12776;SDS011;6452;41.572;23.732;2023-03-14T05:40:35;28.23;;;18.05;;
12776;SDS011;6452;41.572;23.732;2023-03-14T05:43:01;20.63;;;16.60;;
12776;SDS011;6452;41.572;23.732;2023-03-14T05:45:27;23.60;;;16.63;;
12776;SDS011;6452;41.572;23.732;2023-03-14T05:47:53;23.90;;;16.88;;
12776;SDS011;6452;41.572;23.732;2023-03-14T05:50:19;30.08;;;17.17;;
12776;SDS011;6452;41.572;23.732;2023-03-14T05:52:46;27.38;;;18.60;;
12776;SDS011;6452;41.572;23.732;2023-03-14T05:55:12;26.05;;;18.20;;
12776;SDS011;6452;41.572;23.732;2023-03-14T05:57:38;25.35;;;17.80;;
12776;SDS011;6452;41.572;23.732;2023-03-14T06:00:04;23.65;;;15.98;;
12776;SDS011;6452;41.572;23.732;2023-03-14T06:02:30;22.23;;;14.85;;
12776;SDS011;6452;41.572;23.732;2023-03-14T06:04:56;18.10;;;12.80;;
12776;SDS011;6452;41.572;23.732;2023-03-14T06:07:22;9.95;;;7.20;;
12776;SDS011;6452;41.572;23.732;2023-03-14T06:09:48;16.52;;;12.20;;
12776;SDS011;6452;41.572;23.732;2023-03-14T06:12:15;23.92;;;16.35;;
12776;SDS011;6452;41.572;23.732;2023-03-14T06:14:41;17.50;;;13.32;;
12776;SDS011;6452;41.572;23.732;2023-03-14T06:17:07;14.15;;;10.07;;
12776;SDS011;6452;41.572;23.732;2023-03-14T06:19:33;8.50;;;6.75;;
12776;SDS011;6452;41.572;23.732;2023-03-14T06:21:59;10.82;;;7.22;;
12776;SDS011;6452;41.572;23.732;2023-03-14T06:24:25;14.05;;;10.38;;
12776;SDS011;6452;41.572;23.732;2023-03-14T06:26:51;13.63;;;9.88;;
12776;SDS011;6452;41.572;23.732;2023-03-14T06:29:18;12.05;;;9.75;;
12776;SDS011;6452;41.572;23.732;2023-03-14T06:31:44;15.73;;;11.52;;
12776;SDS011;6452;41.572;23.732;2023-03-14T06:34:09;12.38;;;9.30;;
12776;SDS011;6452;41.572;23.732;2023-03-14T06:36:36;9.57;;;6.25;;
12776;SDS011;6452;41.572;23.732;2023-03-14T06:39:06;13.02;;;9.63;;
12776;SDS011;6452;41.572;23.732;2023-03-14T06:41:32;24.70;;;16.08;;
12776;SDS011;6452;41.572;23.732;2023-03-14T06:43:58;22.58;;;13.70;;
12776;SDS011;6452;41.572;23.732;2023-03-14T06:46:23;19.73;;;12.57;;
12776;SDS011;6452;41.572;23.732;2023-03-14T06:48:50;20.60;;;12.60;;
12776;SDS011;6452;41.572;23.732;2023-03-14T06:51:15;13.57;;;11.20;;
12776;SDS011;6452;41.572;23.732;2023-03-14T06:53:41;14.68;;;10.25;;
12776;SDS011;6452;41.572;23.732;2023-03-14T06:56:08;12.82;;;10.10;;
12776;SDS011;6452;41.572;23.732;2023-03-14T06:58:34;12.27;;;9.82;;
12776;SDS011;6452;41.572;23.732;2023-03-14T07:01:00;14.80;;;10.32;;
12776;SDS011;6452;41.572;23.732;2023-03-14T07:03:26;12.45;;;10.13;;
12776;SDS011;6452;41.572;23.732;2023-03-14T07:05:52;12.07;;;9.00;;
12776;SDS011;6452;41.572;23.732;2023-03-14T07:08:19;11.05;;;9.02;;
12776;SDS011;6452;41.572;23.732;2023-03-14T07:10:45;15.50;;;10.60;;
12776;SDS011;6452;41.572;23.732;2023-03-14T07:13:11;11.60;;;9.40;;
12776;SDS011;6452;41.572;23.732;2023-03-14T07:15:37;11.88;;;8.50;;
12776;SDS011;6452;41.572;23.732;2023-03-14T07:18:03;12.60;;;7.90;;
12776;SDS011;6452;41.572;23.732;2023-03-14T07:20:29;13.75;;;7.40;;
12776;SDS011;6452;41.572;23.732;2023-03-14T07:22:57;8.35;;;7.07;;
12776;SDS011;6452;41.572;23.732;2023-03-14T07:25:25;10.55;;;7.43;;
12776;SDS011;6452;41.572;23.732;2023-03-14T07:27:51;7.80;;;6.97;;
12776;SDS011;6452;41.572;23.732;2023-03-14T07:30:17;10.07;;;7.80;;
12776;SDS011;6452;41.572;23.732;2023-03-14T07:32:43;12.45;;;7.60;;
12776;SDS011;6452;41.572;23.732;2023-03-14T07:35:09;8.38;;;7.20;;
12776;SDS011;6452;41.572;23.732;2023-03-14T07:37:36;8.75;;;6.93;;
12776;SDS011;6452;41.572;23.732;2023-03-14T07:40:01;8.77;;;6.88;;
12776;SDS011;6452;41.572;23.732;2023-03-14T07:42:30;6.63;;;5.85;;
12776;SDS011;6452;41.572;23.732;2023-03-14T07:44:57;7.43;;;6.68;;
12776;SDS011;6452;41.572;23.732;2023-03-14T07:47:23;7.63;;;6.65;;
12776;SDS011;6452;41.572;23.732;2023-03-14T07:49:48;7.78;;;6.22;;
12776;SDS011;6452;41.572;23.732;2023-03-14T07:52:14;7.45;;;6.75;;
12776;SDS011;6452;41.572;23.732;2023-03-14T07:54:41;7.50;;;6.00;;
12776;SDS011;6452;41.572;23.732;2023-03-14T07:57:07;7.72;;;6.00;;
12776;SDS011;6452;41.572;23.732;2023-03-14T07:59:33;7.03;;;5.88;;
12776;SDS011;6452;41.572;23.732;2023-03-14T08:01:59;5.65;;;5.15;;
12776;SDS011;6452;41.572;23.732;2023-03-14T08:04:25;5.55;;;5.03;;
12776;SDS011;6452;41.572;23.732;2023-03-14T08:06:52;5.43;;;4.93;;
12776;SDS011;6452;41.572;23.732;2023-03-14T08:09:19;5.90;;;5.30;;
12776;SDS011;6452;41.572;23.732;2023-03-14T08:11:45;6.93;;;4.65;;
12776;SDS011;6452;41.572;23.732;2023-03-14T08:14:12;5.38;;;4.82;;
12776;SDS011;6452;41.572;23.732;2023-03-14T08:16:38;5.70;;;5.20;;
12776;SDS011;6452;41.572;23.732;2023-03-14T08:19:04;5.25;;;4.75;;
12776;SDS011;6452;41.572;23.732;2023-03-14T08:21:30;10.00;;;9.00;;
12776;SDS011;6452;41.572;23.732;2023-03-14T08:23:56;6.82;;;5.78;;
12776;SDS011;6452;41.572;23.732;2023-03-14T08:26:22;3.95;;;3.65;;
12776;SDS011;6452;41.572;23.732;2023-03-14T08:28:48;3.83;;;3.53;;
12776;SDS011;6452;41.572;23.732;2023-03-14T08:31:14;4.35;;;4.05;;
12776;SDS011;6452;41.572;23.732;2023-03-14T08:33:40;6.15;;;5.70;;
12776;SDS011;6452;41.572;23.732;2023-03-14T08:36:06;3.92;;;3.55;;
12776;SDS011;6452;41.572;23.732;2023-03-14T08:38:33;4.70;;;4.30;;
12776;SDS011;6452;41.572;23.732;2023-03-14T08:41:00;4.78;;;4.30;;
12776;SDS011;6452;41.572;23.732;2023-03-14T08:43:26;4.43;;;4.15;;
12776;SDS011;6452;41.572;23.732;2023-03-14T08:45:53;3.45;;;3.25;;
12776;SDS011;6452;41.572;23.732;2023-03-14T08:48:19;6.72;;;4.70;;
12776;SDS011;6452;41.572;23.732;2023-03-14T08:50:45;4.50;;;4.20;;
12776;SDS011;6452;41.572;23.732;2023-03-14T08:53:11;4.53;;;4.13;;
12776;SDS011;6452;41.572;23.732;2023-03-14T08:55:37;3.30;;;2.72;;
12776;SDS011;6452;41.572;23.732;2023-03-14T08:58:03;4.05;;;3.45;;
12776;SDS011;6452;41.572;23.732;2023-03-14T09:00:29;4.30;;;2.72;;
12776;SDS011;6452;41.572;23.732;2023-03-14T09:02:55;2.60;;;2.40;;
12776;SDS011;6452;41.572;23.732;2023-03-14T09:05:22;2.83;;;2.63;;
12776;SDS011;6452;41.572;23.732;2023-03-14T09:07:47;3.15;;;2.85;;
12776;SDS011;6452;41.572;23.732;2023-03-14T09:10:13;3.22;;;3.03;;
12776;SDS011;6452;41.572;23.732;2023-03-14T09:12:39;3.90;;;3.60;;
12776;SDS011;6452;41.572;23.732;2023-03-14T09:15:05;4.03;;;3.72;;
12776;SDS011;6452;41.572;23.732;2023-03-14T09:17:33;5.13;;;4.55;;
12776;SDS011;6452;41.572;23.732;2023-03-14T09:19:58;3.58;;;3.28;;
12776;SDS011;6452;41.572;23.732;2023-03-14T09:22:25;3.22;;;2.90;;
12776;SDS011;6452;41.572;23.732;2023-03-14T09:24:51;4.05;;;2.88;;
12776;SDS011;6452;41.572;23.732;2023-03-14T09:27:17;3.30;;;3.05;;
12776;SDS011;6452;41.572;23.732;2023-03-14T09:29:43;3.90;;;3.30;;
12776;SDS011;6452;41.572;23.732;2023-03-14T09:32:09;6.10;;;3.15;;
12776;SDS011;6452;41.572;23.732;2023-03-14T09:34:35;3.35;;;3.05;;
12776;SDS011;6452;41.572;23.732;2023-03-14T09:37:01;3.10;;;2.90;;
12776;SDS011;6452;41.572;23.732;2023-03-14T09:39:27;3.33;;;3.03;;
12776;SDS011;6452;41.572;23.732;2023-03-14T09:41:53;3.60;;;3.20;;
12776;SDS011;6452;41.572;23.732;2023-03-14T09:44:30;3.38;;;3.17;;
12776;SDS011;6452;41.572;23.732;2023-03-14T09:46:57;3.78;;;3.55;;
12776;SDS011;6452;41.572;23.732;2023-03-14T09:49:28;3.30;;;3.10;;
12776;SDS011;6452;41.572;23.732;2023-03-14T09:51:55;5.05;;;3.47;;
12776;SDS011;6452;41.572;23.732;2023-03-14T09:54:35;3.05;;;2.85;;
12776;SDS011;6452;41.572;23.732;2023-03-14T09:57:03;2.80;;;2.67;;
12776;SDS011;6452;41.572;23.732;2023-03-14T09:59:30;3.08;;;2.83;;
12776;SDS011;6452;41.572;23.732;2023-03-14T10:01:58;3.40;;;3.00;;
12776;SDS011;6452;41.572;23.732;2023-03-14T10:04:25;3.58;;;3.10;;
12776;SDS011;6452;41.572;23.732;2023-03-14T10:06:52;3.28;;;2.97;;
12776;SDS011;6452;41.572;23.732;2023-03-14T10:09:19;3.03;;;2.80;;
12776;SDS011;6452;41.572;23.732;2023-03-14T10:11:59;3.22;;;2.92;;
12776;SDS011;6452;41.572;23.732;2023-03-14T10:14:37;3.35;;;3.05;;
12776;SDS011;6452;41.572;23.732;2023-03-14T10:17:07;3.97;;;2.83;;
12776;SDS011;6452;41.572;23.732;2023-03-14T10:19:33;3.25;;;3.05;;
12776;SDS011;6452;41.572;23.732;2023-03-14T10:22:02;6.32;;;4.05;;
12776;SDS011;6452;41.572;23.732;2023-03-14T10:24:34;5.13;;;4.68;;
12776;SDS011;6452;41.572;23.732;2023-03-14T10:27:02;5.70;;;3.58;;
12776;SDS011;6452;41.572;23.732;2023-03-14T10:29:28;3.63;;;3.35;;
12776;SDS011;6452;41.572;23.732;2023-03-14T10:31:59;5.05;;;4.30;;
12776;SDS011;6452;41.572;23.732;2023-03-14T10:34:27;3.50;;;3.30;;
12776;SDS011;6452;41.572;23.732;2023-03-14T10:36:57;9.82;;;3.65;;
12776;SDS011;6452;41.572;23.732;2023-03-14T10:39:30;4.53;;;3.08;;
12776;SDS011;6452;41.572;23.732;2023-03-14T10:42:02;4.22;;;3.83;;
12776;SDS011;6452;41.572;23.732;2023-03-14T10:44:29;4.65;;;4.20;;
12776;SDS011;6452;41.572;23.732;2023-03-14T10:46:59;3.53;;;3.33;;
12776;SDS011;6452;41.572;23.732;2023-03-14T10:49:29;5.25;;;3.60;;
12776;SDS011;6452;41.572;23.732;2023-03-14T10:51:58;4.82;;;4.10;;
12776;SDS011;6452;41.572;23.732;2023-03-14T10:54:29;4.43;;;3.60;;
12776;SDS011;6452;41.572;23.732;2023-03-14T10:56:55;3.88;;;3.58;;
12776;SDS011;6452;41.572;23.732;2023-03-14T10:59:21;4.22;;;3.97;;
12776;SDS011;6452;41.572;23.732;2023-03-14T11:11:54;3.90;;;3.30;;
12776;SDS011;6452;41.572;23.732;2023-03-14T11:14:29;3.58;;;3.38;;
12776;SDS011;6452;41.572;23.732;2023-03-14T11:27:18;3.78;;;3.47;;
12776;SDS011;6452;41.572;23.732;2023-03-14T11:32:24;4.20;;;3.42;;
12776;SDS011;6452;41.572;23.732;2023-03-14T11:34:51;3.38;;;3.08;;
12776;SDS011;6452;41.572;23.732;2023-03-14T11:37:28;3.78;;;3.38;;
12776;SDS011;6452;41.572;23.732;2023-03-14T11:40:17;4.60;;;3.30;;
12776;SDS011;6452;41.572;23.732;2023-03-14T11:42:42;3.67;;;3.20;;
12776;SDS011;6452;41.572;23.732;2023-03-14T11:45:19;3.33;;;3.03;;
12776;SDS011;6452;41.572;23.732;2023-03-14T11:47:48;3.90;;;3.60;;
12776;SDS011;6452;41.572;23.732;2023-03-14T11:50:19;3.65;;;3.33;;
12776;SDS011;6452;41.572;23.732;2023-03-14T11:55:31;3.25;;;3.00;;
12776;SDS011;6452;41.572;23.732;2023-03-14T12:00:42;3.30;;;3.10;;
12776;SDS011;6452;41.572;23.732;2023-03-14T12:03:14;3.40;;;3.20;;
12776;SDS011;6452;41.572;23.732;2023-03-14T12:05:45;3.10;;;3.00;;
12776;SDS011;6452;41.572;23.732;2023-03-14T12:08:58;3.35;;;3.10;;
12776;SDS011;6452;41.572;23.732;2023-03-14T12:11:00;3.50;;;3.22;;
12776;SDS011;6452;41.572;23.732;2023-03-14T12:13:33;3.90;;;3.33;;
12776;SDS011;6452;41.572;23.732;2023-03-14T12:16:00;4.70;;;3.08;;
12776;SDS011;6452;41.572;23.732;2023-03-14T12:20:56;2.72;;;2.63;;
12776;SDS011;6452;41.572;23.732;2023-03-14T12:23:23;3.00;;;2.70;;
12776;SDS011;6452;41.572;23.732;2023-03-14T12:26:05;4.90;;;2.80;;
12776;SDS011;6452;41.572;23.732;2023-03-14T12:28:33;4.00;;;3.70;;
12776;SDS011;6452;41.572;23.732;2023-03-14T12:34:00;3.40;;;3.20;;
12776;SDS011;6452;41.572;23.732;2023-03-14T12:36:51;3.00;;;2.80;;
12776;SDS011;6452;41.572;23.732;2023-03-14T12:46:54;6.95;;;3.63;;
12776;SDS011;6452;41.572;23.732;2023-03-14T12:49:20;2.70;;;2.50;;
12776;SDS011;6452;41.572;23.732;2023-03-14T12:51:48;2.90;;;2.70;;
12776;SDS011;6452;41.572;23.732;2023-03-14T12:59:52;2.55;;;2.35;;
12776;SDS011;6452;41.572;23.732;2023-03-14T13:02:24;3.55;;;2.92;;
12776;SDS011;6452;41.572;23.732;2023-03-14T13:04:52;3.20;;;2.80;;
12776;SDS011;6452;41.572;23.732;2023-03-14T13:12:36;2.67;;;2.58;;
12776;SDS011;6452;41.572;23.732;2023-03-14T13:15:03;4.43;;;3.70;;
12776;SDS011;6452;41.572;23.732;2023-03-14T13:17:48;3.30;;;3.03;;
12776;SDS011;6452;41.572;23.732;2023-03-14T13:20:16;2.80;;;2.60;;
12776;SDS011;6452;41.572;23.732;2023-03-14T13:22:46;4.10;;;2.50;;
12776;SDS011;6452;41.572;23.732;2023-03-14T13:25:32;1.98;;;1.88;;
12776;SDS011;6452;41.572;23.732;2023-03-14T13:28:17;2.40;;;1.83;;
12776;SDS011;6452;41.572;23.732;2023-03-14T13:30:44;1.92;;;1.83;;
12776;SDS011;6452;41.572;23.732;2023-03-14T13:33:30;6.32;;;3.50;;
12776;SDS011;6452;41.572;23.732;2023-03-14T13:36:15;2.58;;;1.90;;
12776;SDS011;6452;41.572;23.732;2023-03-14T13:38:54;2.95;;;2.50;;
12776;SDS011;6452;41.572;23.732;2023-03-14T13:41:32;2.17;;;1.95;;
12776;SDS011;6452;41.572;23.732;2023-03-14T13:44:01;2.28;;;2.08;;
12776;SDS011;6452;41.572;23.732;2023-03-14T13:46:27;2.88;;;2.65;;
12776;SDS011;6452;41.572;23.732;2023-03-14T13:49:17;4.20;;;2.60;;
12776;SDS011;6452;41.572;23.732;2023-03-14T13:51:44;2.97;;;2.17;;
12776;SDS011;6452;41.572;23.732;2023-03-14T13:54:31;2.20;;;2.10;;
12776;SDS011;6452;41.572;23.732;2023-03-14T13:57:00;3.50;;;2.10;;
12776;SDS011;6452;41.572;23.732;2023-03-14T13:59:57;2.13;;;2.00;;
12776;SDS011;6452;41.572;23.732;2023-03-14T14:02:23;3.97;;;2.60;;
12776;SDS011;6452;41.572;23.732;2023-03-14T14:04:50;2.58;;;2.40;;
12776;SDS011;6452;41.572;23.732;2023-03-14T14:07:16;2.15;;;2.00;;
12776;SDS011;6452;41.572;23.732;2023-03-14T14:09:49;2.15;;;1.90;;
12776;SDS011;6452;41.572;23.732;2023-03-14T14:12:37;2.22;;;2.10;;
12776;SDS011;6452;41.572;23.732;2023-03-14T14:15:10;2.83;;;2.60;;
12776;SDS011;6452;41.572;23.732;2023-03-14T14:20:07;2.72;;;2.08;;
12776;SDS011;6452;41.572;23.732;2023-03-14T14:22:34;2.58;;;2.33;;
12776;SDS011;6452;41.572;23.732;2023-03-14T14:25:00;2.10;;;2.00;;
12776;SDS011;6452;41.572;23.732;2023-03-14T14:27:28;2.22;;;2.00;;
12776;SDS011;6452;41.572;23.732;2023-03-14T14:30:04;3.08;;;2.25;;
12776;SDS011;6452;41.572;23.732;2023-03-14T14:32:34;2.53;;;2.15;;
12776;SDS011;6452;41.572;23.732;2023-03-14T14:35:00;4.70;;;2.50;;
12776;SDS011;6452;41.572;23.732;2023-03-14T14:39:52;2.58;;;2.47;;
12776;SDS011;6452;41.572;23.732;2023-03-14T14:42:19;2.85;;;2.60;;
12776;SDS011;6452;41.572;23.732;2023-03-14T14:44:47;2.70;;;2.47;;
12776;SDS011;6452;41.572;23.732;2023-03-14T14:47:21;4.60;;;2.95;;
12776;SDS011;6452;41.572;23.732;2023-03-14T14:49:48;3.30;;;3.10;;
12776;SDS011;6452;41.572;23.732;2023-03-14T14:52:15;3.35;;;3.10;;
12776;SDS011;6452;41.572;23.732;2023-03-14T14:57:16;3.28;;;2.72;;
12776;SDS011;6452;41.572;23.732;2023-03-14T14:59:42;3.92;;;2.88;;
12776;SDS011;6452;41.572;23.732;2023-03-14T15:02:16;3.67;;;3.00;;
12776;SDS011;6452;41.572;23.732;2023-03-14T15:04:49;4.95;;;3.05;;
12776;SDS011;6452;41.572;23.732;2023-03-14T15:07:15;3.08;;;2.97;;
12776;SDS011;6452;41.572;23.732;2023-03-14T15:09:42;3.40;;;2.75;;
12776;SDS011;6452;41.572;23.732;2023-03-14T15:12:08;5.18;;;3.35;;
12776;SDS011;6452;41.572;23.732;2023-03-14T15:14:34;4.88;;;4.20;;
12776;SDS011;6452;41.572;23.732;2023-03-14T15:17:00;7.75;;;5.28;;
12776;SDS011;6452;41.572;23.732;2023-03-14T15:19:26;11.75;;;7.25;;
12776;SDS011;6452;41.572;23.732;2023-03-14T15:21:52;3.95;;;2.85;;
12776;SDS011;6452;41.572;23.732;2023-03-14T15:24:18;3.30;;;2.22;;
12776;SDS011;6452;41.572;23.732;2023-03-14T15:26:44;10.00;;;5.65;;
12776;SDS011;6452;41.572;23.732;2023-03-14T15:29:11;16.00;;;10.80;;
12776;SDS011;6452;41.572;23.732;2023-03-14T15:31:38;6.80;;;5.20;;
12776;SDS011;6452;41.572;23.732;2023-03-14T15:34:04;5.47;;;4.97;;
12776;SDS011;6452;41.572;23.732;2023-03-14T15:36:31;5.55;;;3.80;;
12776;SDS011;6452;41.572;23.732;2023-03-14T15:38:57;5.90;;;3.70;;
12776;SDS011;6452;41.572;23.732;2023-03-14T15:41:24;4.43;;;4.00;;
12776;SDS011;6452;41.572;23.732;2023-03-14T15:43:51;5.10;;;4.15;;
12776;SDS011;6452;41.572;23.732;2023-03-14T15:46:17;4.65;;;3.28;;
12776;SDS011;6452;41.572;23.732;2023-03-14T15:48:43;6.72;;;4.13;;
12776;SDS011;6452;41.572;23.732;2023-03-14T15:51:10;6.90;;;4.63;;
12776;SDS011;6452;41.572;23.732;2023-03-14T15:53:35;7.78;;;4.90;;